createdAt,value
2019-06-27T00:02:14.393Z,38.56
2019-06-27T00:04:40.594Z,38.80
2019-06-27T00:07:06.860Z,38.49
2019-06-27T00:09:33.088Z,38.33
2019-06-27T00:11:59.281Z,38.13
2019-06-27T00:14:25.450Z,37.91
2019-06-27T00:16:51.665Z,38.02
2019-06-27T00:19:17.908Z,38.34
2019-06-27T00:21:44.121Z,39.31
2019-06-27T00:24:10.353Z,39.07
2019-06-27T00:26:36.569Z,38.72
2019-06-27T00:29:02.935Z,38.70
2019-06-27T00:31:29.133Z,38.61
2019-06-27T00:33:55.361Z,38.78
2019-06-27T00:36:21.521Z,38.55
2019-06-27T00:38:47.714Z,38.44
2019-06-27T00:41:13.912Z,38.04
2019-06-27T00:43:40.191Z,39.62
2019-06-27T00:46:06.400Z,40.02
2019-06-27T00:48:32.729Z,39.30
2019-06-27T00:50:58.886Z,38.87
2019-06-27T00:53:25.064Z,38.63
2019-06-27T00:55:51.309Z,38.36
2019-06-27T00:58:17.465Z,38.50
2019-06-27T01:00:43.773Z,39.77
2019-06-27T01:03:10.199Z,39.20
2019-06-27T01:05:36.422Z,39.11
2019-06-27T01:08:02.763Z,38.89
2019-06-27T01:10:29.009Z,38.71
2019-06-27T01:12:55.246Z,38.68
2019-06-27T01:15:21.552Z,38.38
2019-06-27T01:17:47.740Z,38.40
2019-06-27T01:20:15.484Z,38.40
2019-06-27T01:22:41.764Z,38.43
2019-06-27T01:25:08.252Z,38.57
2019-06-27T01:27:34.729Z,38.49
2019-06-27T01:30:01.163Z,38.69
2019-06-27T01:32:27.500Z,38.54
2019-06-27T01:34:53.653Z,38.58
2019-06-27T01:37:20.055Z,38.46
2019-06-27T01:39:46.525Z,38.78
2019-06-27T01:42:12.803Z,38.74
2019-06-27T01:44:43.428Z,38.42
2019-06-27T01:47:10.186Z,38.36
2019-06-27T01:49:36.434Z,38.29
2019-06-27T01:52:02.699Z,38.48
2019-06-27T01:54:28.972Z,38.48
2019-06-27T01:56:55.135Z,38.47
2019-06-27T01:59:21.317Z,38.22
2019-06-27T02:01:47.526Z,38.25
2019-06-27T02:04:13.686Z,38.23
2019-06-27T02:06:39.845Z,38.43
2019-06-27T02:09:06.061Z,39.17
2019-06-27T02:11:32.248Z,39.17
2019-06-27T02:13:58.417Z,39.03
2019-06-27T02:16:24.716Z,39.05
2019-06-27T02:18:50.881Z,38.74
2019-06-27T02:21:17.238Z,38.70
2019-06-27T02:23:43.604Z,38.84
2019-06-27T02:26:09.830Z,38.80
2019-06-27T02:28:36.061Z,38.78
2019-06-27T02:31:02.294Z,38.55
2019-06-27T02:33:28.517Z,38.75
2019-06-27T02:35:54.747Z,38.73
2019-06-27T02:38:20.953Z,38.71
2019-06-27T02:40:47.130Z,39.02
2019-06-27T02:43:13.338Z,38.79
2019-06-27T02:45:39.562Z,38.60
2019-06-27T02:48:05.778Z,38.45
2019-06-27T02:50:32.007Z,38.27
2019-06-27T02:52:58.246Z,38.05
2019-06-27T02:55:24.466Z,37.93
2019-06-27T02:57:50.696Z,37.67
2019-06-27T03:00:17.904Z,37.21
2019-06-27T03:02:44.169Z,36.18
2019-06-27T03:05:10.809Z,35.13
2019-06-27T03:07:37.552Z,33.92
2019-06-27T03:10:05.931Z,32.90
2019-06-27T03:12:32.101Z,31.94
2019-06-27T03:14:58.394Z,31.61
2019-06-27T03:17:24.654Z,30.36
2019-06-27T03:19:50.833Z,29.64
2019-06-27T03:22:17.182Z,28.42
2019-06-27T03:24:43.418Z,26.75
2019-06-27T03:27:09.564Z,26.53
2019-06-27T03:29:35.769Z,26.21
2019-06-27T03:32:02.124Z,25.51
2019-06-27T03:34:28.388Z,25.24
2019-06-27T03:36:54.849Z,25.17
2019-06-27T03:39:21.189Z,25.07
2019-06-27T03:41:47.337Z,24.81
2019-06-27T03:44:13.639Z,24.34
2019-06-27T03:46:39.792Z,24.09
2019-06-27T03:49:05.955Z,23.87
2019-06-27T03:51:32.214Z,23.42
2019-06-27T03:53:58.436Z,22.75
2019-06-27T03:56:24.683Z,22.26
2019-06-27T03:59:10.771Z,21.60
2019-06-27T04:01:18.967Z,20.48
2019-06-27T04:03:45.126Z,20.29
2019-06-27T04:06:11.429Z,19.34
2019-06-27T04:08:37.657Z,19.19
2019-06-27T04:11:04.080Z,19.08
2019-06-27T04:13:30.414Z,19.20
2019-06-27T04:15:56.636Z,18.77
2019-06-27T04:18:22.799Z,19.94
2019-06-27T04:20:49.100Z,19.40
2019-06-27T04:23:16.250Z,18.50
2019-06-27T04:25:42.415Z,17.99
2019-06-27T04:28:08.893Z,16.62
2019-06-27T04:30:35.194Z,16.62
2019-06-27T04:33:01.512Z,16.47
2019-06-27T04:35:27.722Z,15.48
2019-06-27T04:37:53.916Z,16.36
2019-06-27T04:40:20.189Z,16.71
2019-06-27T04:42:46.401Z,17.33
2019-06-27T04:45:12.691Z,18.14
2019-06-27T04:47:38.880Z,18.65
2019-06-27T04:50:05.158Z,18.65
2019-06-27T04:52:31.338Z,18.92
2019-06-27T04:54:57.495Z,18.85
2019-06-27T04:57:23.714Z,19.01
2019-06-27T04:59:53.912Z,17.96
2019-06-27T05:02:17.980Z,18.91
2019-06-27T05:04:44.208Z,18.67
2019-06-27T05:07:10.394Z,17.13
2019-06-27T05:09:36.556Z,17.66
2019-06-27T05:12:02.782Z,19.38
2019-06-27T05:14:32.444Z,22.10
2019-06-27T05:16:56.995Z,26.10
2019-06-27T05:19:23.216Z,25.29
2019-06-27T05:21:49.392Z,24.99
2019-06-27T05:24:15.563Z,24.21
2019-06-27T05:26:41.764Z,23.51
2019-06-27T05:29:07.946Z,24.08
2019-06-27T05:31:34.099Z,23.15
2019-06-27T05:34:00.412Z,23.19
2019-06-27T05:36:26.582Z,21.65
2019-06-27T05:38:52.876Z,21.50
2019-06-27T05:41:19.089Z,21.61
2019-06-27T05:43:45.277Z,21.63
2019-06-27T05:46:11.467Z,21.48
2019-06-27T05:48:39.861Z,19.83
2019-06-27T05:51:05.762Z,20.68
2019-06-27T05:53:31.926Z,19.29
2019-06-27T05:55:58.123Z,18.97
2019-06-27T05:58:24.316Z,17.70
2019-06-27T06:00:50.488Z,17.85
2019-06-27T06:03:16.686Z,17.74
2019-06-27T06:05:42.868Z,18.42
2019-06-27T06:08:09.061Z,18.42
2019-06-27T06:10:35.255Z,19.72
2019-06-27T06:13:01.456Z,20.09
2019-06-27T06:15:27.636Z,19.13
2019-06-27T06:17:53.829Z,18.25
2019-06-27T06:20:20.120Z,18.69
2019-06-27T06:22:46.284Z,19.58
2019-06-27T06:25:12.612Z,18.09
2019-06-27T06:27:38.923Z,19.88
2019-06-27T06:30:05.885Z,20.51
2019-06-27T06:32:32.108Z,21.20
2019-06-27T06:34:58.338Z,20.41
2019-06-27T06:37:24.643Z,19.68
2019-06-27T06:39:50.832Z,19.69
2019-06-27T06:42:17.008Z,19.16
2019-06-27T06:44:43.200Z,19.33
2019-06-27T06:47:09.382Z,19.93
2019-06-27T06:49:35.564Z,21.49
2019-06-27T06:52:01.722Z,20.32
2019-06-27T06:54:27.930Z,21.13
2019-06-27T06:56:54.125Z,21.08
2019-06-27T06:59:20.309Z,23.06
2019-06-27T07:01:46.526Z,24.21
2019-06-27T07:04:12.689Z,21.94
2019-06-27T07:06:38.864Z,22.33
2019-06-27T07:09:07.073Z,21.52
2019-06-27T07:11:33.266Z,20.38
2019-06-27T07:13:59.546Z,20.43
2019-06-27T07:16:25.744Z,19.66
2019-06-27T07:18:51.902Z,21.07
2019-06-27T07:21:18.082Z,19.68
2019-06-27T07:23:44.284Z,19.73
2019-06-27T07:26:10.448Z,22.16
2019-06-27T07:28:36.766Z,21.43
2019-06-27T07:31:16.800Z,19.67
2019-06-27T07:33:31.434Z,21.31
2019-06-27T07:35:57.615Z,21.74
2019-06-27T07:38:23.802Z,23.17
2019-06-27T07:40:50.002Z,23.08
2019-06-27T07:43:16.165Z,23.39
2019-06-27T07:45:42.345Z,21.90
2019-06-27T07:48:08.526Z,22.73
2019-06-27T07:50:34.693Z,22.69
2019-06-27T07:53:00.884Z,23.00
2019-06-27T07:55:27.079Z,23.74
2019-06-27T07:57:53.264Z,22.78
2019-06-27T08:00:19.744Z,23.07
2019-06-27T08:02:45.913Z,22.44
2019-06-27T08:05:13.821Z,21.55
2019-06-27T08:07:40.005Z,19.13
2019-06-27T08:10:06.495Z,18.93
2019-06-27T08:12:32.683Z,18.72
2019-06-27T08:14:58.865Z,20.31
2019-06-27T08:17:25.417Z,20.74
2019-06-27T08:19:51.601Z,22.25
2019-06-27T08:22:17.820Z,22.24
2019-06-27T08:24:43.971Z,21.06
2019-06-27T08:27:10.180Z,22.97
2019-06-27T08:29:36.347Z,22.00
2019-06-27T08:32:02.513Z,21.61
2019-06-27T08:34:28.735Z,20.10
2019-06-27T08:36:55.202Z,19.88
2019-06-27T08:39:21.365Z,20.47
2019-06-27T08:41:47.522Z,18.72
2019-06-27T08:44:13.731Z,18.62
2019-06-27T08:46:40.189Z,19.86
2019-06-27T08:49:06.372Z,20.35
2019-06-27T08:51:32.577Z,19.48
2019-06-27T08:53:58.743Z,21.08
2019-06-27T08:56:24.923Z,21.69
2019-06-27T08:58:51.116Z,20.10
2019-06-27T09:01:17.275Z,21.31
2019-06-27T09:03:43.457Z,21.44
2019-06-27T09:06:09.650Z,21.24
2019-06-27T09:08:35.834Z,20.31
2019-06-27T09:11:02.021Z,19.08
2019-06-27T09:13:28.212Z,19.25
2019-06-27T09:15:54.369Z,22.13
2019-06-27T09:18:20.653Z,23.62
2019-06-27T09:20:46.873Z,21.84
2019-06-27T09:23:13.037Z,20.61
2019-06-27T09:25:39.537Z,20.77
2019-06-27T09:28:05.736Z,21.22
2019-06-27T09:30:31.953Z,20.26
2019-06-27T09:32:58.144Z,20.73
2019-06-27T09:35:24.356Z,22.02
2019-06-27T09:37:50.507Z,21.68
2019-06-27T09:40:17.169Z,21.47
2019-06-27T09:42:43.404Z,20.09
2019-06-27T09:45:10.293Z,20.74
2019-06-27T09:47:36.467Z,21.03
2019-06-27T09:50:06.297Z,20.65
2019-06-27T09:52:32.549Z,19.67
2019-06-27T09:54:58.712Z,19.92
2019-06-27T09:57:24.935Z,19.27
2019-06-27T09:59:51.100Z,19.48
2019-06-27T10:02:17.247Z,19.36
2019-06-27T10:04:43.464Z,18.24
2019-06-27T10:07:16.048Z,19.45
2019-06-27T10:09:39.783Z,17.99
2019-06-27T10:12:05.988Z,17.50
2019-06-27T10:14:33.161Z,16.54
2019-06-27T10:16:59.366Z,17.32
2019-06-27T10:19:25.575Z,18.16
2019-06-27T10:21:51.729Z,19.23
2019-06-27T10:24:18.981Z,18.81
2019-06-27T10:26:45.164Z,17.66
2019-06-27T10:29:11.440Z,18.36
2019-06-27T10:31:37.941Z,18.81
2019-06-27T10:34:04.161Z,17.62
2019-06-27T10:36:30.318Z,18.31
2019-06-27T10:38:56.466Z,18.19
2019-06-27T10:41:22.694Z,19.39
2019-06-27T10:43:49.919Z,18.52
2019-06-27T10:46:16.149Z,19.32
2019-06-27T10:48:42.334Z,20.16
2019-06-27T10:51:08.539Z,21.30
2019-06-27T10:53:34.687Z,19.12
2019-06-27T10:56:01.099Z,18.83
2019-06-27T10:58:27.707Z,17.96
2019-06-27T11:00:53.882Z,19.47
2019-06-27T11:03:20.266Z,20.71
2019-06-27T11:05:46.606Z,20.73
2019-06-27T11:08:14.778Z,19.69
2019-06-27T11:10:40.884Z,17.70
2019-06-27T11:13:07.060Z,17.35
2019-06-27T11:15:33.201Z,16.67
2019-06-27T11:17:59.405Z,15.53
2019-06-27T11:20:27.362Z,16.73
2019-06-27T11:22:53.532Z,18.00
2019-06-27T11:25:19.836Z,17.70
2019-06-27T11:27:46.022Z,17.71
2019-06-27T11:30:14.089Z,17.70
2019-06-27T11:32:40.416Z,17.92
2019-06-27T11:35:06.674Z,17.87
2019-06-27T11:37:33.397Z,18.39
2019-06-27T11:39:59.768Z,19.31
2019-06-27T11:42:28.874Z,16.10
2019-06-27T11:44:54.360Z,15.29
2019-06-27T11:47:20.609Z,15.74
2019-06-27T11:49:46.768Z,17.25
2019-06-27T11:52:12.923Z,16.02
2019-06-27T11:54:39.130Z,17.58
2019-06-27T11:57:05.297Z,17.47
2019-06-27T11:59:31.454Z,17.02
2019-06-27T12:01:58.032Z,18.76
2019-06-27T12:04:24.175Z,17.84
2019-06-27T12:06:50.710Z,18.77
2019-06-27T12:09:17.249Z,18.17
2019-06-27T12:11:43.794Z,18.41
2019-06-27T12:14:10.270Z,16.72
2019-06-27T12:16:36.469Z,16.17
2019-06-27T12:19:02.635Z,16.24
2019-06-27T12:21:28.804Z,17.69
2019-06-27T12:23:55.025Z,17.34
2019-06-27T12:26:21.181Z,17.16
2019-06-27T12:28:47.333Z,18.06
2019-06-27T12:31:20.393Z,17.70
2019-06-27T12:33:41.673Z,16.63
2019-06-27T12:36:08.222Z,17.20
2019-06-27T12:38:34.464Z,17.05
2019-06-27T12:41:01.094Z,16.29
2019-06-27T12:43:27.252Z,18.90
2019-06-27T12:45:53.616Z,17.85
2019-06-27T12:48:19.795Z,15.50
2019-06-27T12:50:45.952Z,16.25
2019-06-27T12:53:12.154Z,17.65
2019-06-27T12:55:38.340Z,17.67
2019-06-27T12:58:04.486Z,17.21
2019-06-27T13:00:30.690Z,16.97
2019-06-27T13:02:57.004Z,17.10
2019-06-27T13:05:23.165Z,15.21
2019-06-27T13:07:49.495Z,15.62
2019-06-27T13:10:15.879Z,16.32
2019-06-27T13:12:42.144Z,16.68
2019-06-27T13:15:08.637Z,16.29
2019-06-27T13:17:34.819Z,16.01
2019-06-27T13:20:01.092Z,16.86
2019-06-27T13:22:27.399Z,17.52
2019-06-27T13:24:53.606Z,15.66
2019-06-27T13:27:19.748Z,16.71
2019-06-27T13:29:46.052Z,16.37
2019-06-27T13:32:12.535Z,15.61
2019-06-27T13:34:40.700Z,15.59
2019-06-27T13:37:06.800Z,17.27
2019-06-27T13:39:33.380Z,17.27
2019-06-27T13:41:59.541Z,17.65
2019-06-27T13:44:25.744Z,18.18
2019-06-27T13:46:51.920Z,18.31
2019-06-27T13:49:18.091Z,17.12
2019-06-27T13:51:44.297Z,17.39
2019-06-27T13:54:10.454Z,17.39
2019-06-27T13:56:36.621Z,16.16
2019-06-27T13:59:02.802Z,17.41
2019-06-27T14:01:28.991Z,16.82
2019-06-27T14:03:55.164Z,17.14
2019-06-27T14:06:21.361Z,16.64
2019-06-27T14:08:47.547Z,16.23
2019-06-27T14:11:13.722Z,15.00
2019-06-27T14:13:39.912Z,16.26
2019-06-27T14:16:06.182Z,16.57
2019-06-27T14:18:32.554Z,17.69
2019-06-27T14:20:58.767Z,17.19
2019-06-27T14:23:24.971Z,17.20
2019-06-27T14:25:51.101Z,16.04
2019-06-27T14:28:17.299Z,16.66
2019-06-27T14:30:43.474Z,17.97
2019-06-27T14:33:09.653Z,17.55
2019-06-27T14:35:35.953Z,18.16
2019-06-27T14:38:02.122Z,19.34
2019-06-27T14:40:28.288Z,17.49
2019-06-27T14:42:54.510Z,18.46
2019-06-27T14:45:20.689Z,17.76
2019-06-27T14:47:46.865Z,17.23
2019-06-27T14:50:13.151Z,17.24
2019-06-27T14:52:39.313Z,17.17
2019-06-27T14:55:07.121Z,17.89
2019-06-27T14:57:33.927Z,17.49
2019-06-27T15:00:00.098Z,18.43
2019-06-27T15:02:26.246Z,17.38
2019-06-27T15:04:52.627Z,18.06
2019-06-27T15:07:18.929Z,17.68
2019-06-27T15:09:45.193Z,17.35
2019-06-27T15:12:11.388Z,18.85
2019-06-27T15:14:37.564Z,19.70
2019-06-27T15:17:03.716Z,19.22
2019-06-27T15:19:29.929Z,18.31
2019-06-27T15:21:56.099Z,17.28
2019-06-27T15:24:22.251Z,19.00
2019-06-27T15:26:48.461Z,18.28
2019-06-27T15:29:14.616Z,17.74
2019-06-27T15:31:40.816Z,17.62
2019-06-27T15:34:07.034Z,16.99
2019-06-27T15:36:34.216Z,17.62
2019-06-27T15:39:00.391Z,19.35
2019-06-27T15:41:26.637Z,18.46
2019-06-27T15:43:52.797Z,18.34
2019-06-27T15:46:18.949Z,18.64
2019-06-27T15:48:45.171Z,17.64
2019-06-27T15:51:11.353Z,19.12
2019-06-27T15:53:37.667Z,18.59
2019-06-27T15:56:03.959Z,18.02
2019-06-27T15:58:30.111Z,19.37
2019-06-27T16:00:56.296Z,19.33
2019-06-27T16:03:22.504Z,19.13
2019-06-27T16:05:48.699Z,17.97
2019-06-27T16:08:14.871Z,18.14
2019-06-27T16:10:41.064Z,18.35
2019-06-27T16:13:07.249Z,18.12
2019-06-27T16:15:33.394Z,18.01
2019-06-27T16:17:59.611Z,17.72
2019-06-27T16:20:25.993Z,18.12
2019-06-27T16:22:52.155Z,17.52
2019-06-27T16:25:18.352Z,17.60
2019-06-27T16:27:44.542Z,18.14
2019-06-27T16:30:10.929Z,18.30
2019-06-27T16:32:37.440Z,18.41
2019-06-27T16:35:05.323Z,18.22
2019-06-27T16:37:31.525Z,18.65
2019-06-27T16:39:57.742Z,19.55
2019-06-27T16:42:23.929Z,20.12
2019-06-27T16:44:50.566Z,20.60
2019-06-27T16:47:16.794Z,20.45
2019-06-27T16:49:43.091Z,19.99
2019-06-27T16:52:09.286Z,20.06
2019-06-27T16:54:35.615Z,19.99
2019-06-27T16:57:01.766Z,20.14
2019-06-27T16:59:27.934Z,20.77
2019-06-27T17:01:54.247Z,22.15
2019-06-27T17:04:20.419Z,22.04
2019-06-27T17:06:46.568Z,21.89
2019-06-27T17:09:12.771Z,21.76
2019-06-27T17:11:38.960Z,21.87
2019-06-27T17:14:05.211Z,21.93
2019-06-27T17:16:31.522Z,22.89
2019-06-27T17:18:57.687Z,22.67
2019-06-27T17:21:23.846Z,22.35
2019-06-27T17:23:50.044Z,22.21
2019-06-27T17:26:16.224Z,23.78
2019-06-27T17:28:42.508Z,23.16
2019-06-27T17:31:08.689Z,23.66
2019-06-27T17:33:34.869Z,23.53
2019-06-27T17:36:01.024Z,23.72
2019-06-27T17:38:28.406Z,23.48
2019-06-27T17:40:54.629Z,23.58
2019-06-27T17:43:20.807Z,23.72
2019-06-27T17:45:47.009Z,23.50
2019-06-27T17:48:13.163Z,23.36
2019-06-27T17:50:39.350Z,23.54
2019-06-27T17:53:05.539Z,23.70
2019-06-27T17:55:31.739Z,24.37
2019-06-27T17:57:57.906Z,24.94
2019-06-27T18:00:24.192Z,24.32
2019-06-27T18:02:50.485Z,25.17
2019-06-27T18:05:18.510Z,24.33
2019-06-27T18:07:44.762Z,24.83
2019-06-27T18:10:11.855Z,24.45
2019-06-27T18:12:38.106Z,24.24
2019-06-27T18:15:05.352Z,24.94
2019-06-27T18:17:33.950Z,24.78
2019-06-27T18:19:59.593Z,25.38
2019-06-27T18:22:25.803Z,25.11
2019-06-27T18:24:52.066Z,25.91
2019-06-27T18:27:18.449Z,25.97
2019-06-27T18:29:47.841Z,25.60
2019-06-27T18:32:12.854Z,25.06
2019-06-27T18:34:42.089Z,24.94
2019-06-27T18:37:08.303Z,25.40
2019-06-27T18:39:34.596Z,24.96
2019-06-27T18:42:00.791Z,25.34
2019-06-27T18:44:26.988Z,25.31
2019-06-27T18:46:53.162Z,25.31
2019-06-27T18:49:19.347Z,25.58
2019-06-27T18:51:45.543Z,27.00
2019-06-27T18:54:11.822Z,27.13
2019-06-27T18:56:39.911Z,27.09
2019-06-27T18:59:06.203Z,26.84
2019-06-27T19:01:32.373Z,25.85
2019-06-27T19:03:58.573Z,26.24
2019-06-27T19:06:24.807Z,26.24
2019-06-27T19:08:50.958Z,26.53
2019-06-27T19:11:17.150Z,26.68
2019-06-27T19:13:43.366Z,27.34
2019-06-27T19:16:09.639Z,27.34
2019-06-27T19:18:52.648Z,26.97
2019-06-27T19:21:23.578Z,27.52
2019-06-27T19:24:00.495Z,27.43
2019-06-27T19:26:26.667Z,27.16
2019-06-27T19:28:52.836Z,27.36
2019-06-27T19:31:19.071Z,27.33
2019-06-27T19:33:45.550Z,25.97
2019-06-27T19:36:11.714Z,25.97
2019-06-27T19:38:37.932Z,26.08
2019-06-27T19:41:04.268Z,26.59
2019-06-27T19:43:30.434Z,26.59
2019-06-27T19:45:56.635Z,26.26
2019-06-27T19:48:22.823Z,27.15
2019-06-27T19:50:48.992Z,27.15
2019-06-27T19:53:15.231Z,25.69
2019-06-27T19:55:41.420Z,25.07
2019-06-27T19:58:07.587Z,25.57
2019-06-27T20:00:46.282Z,25.53
2019-06-27T20:03:16.750Z,25.67
2019-06-27T20:05:42.935Z,25.67
2019-06-27T20:08:18.895Z,26.12
2019-06-27T20:10:37.205Z,26.81
2019-06-27T20:13:03.663Z,25.93
2019-06-27T20:15:29.869Z,26.27
2019-06-27T20:17:56.052Z,26.00
2019-06-27T20:20:22.230Z,26.32
2019-06-27T20:22:48.417Z,26.11
2019-06-27T20:25:14.680Z,26.22
2019-06-27T20:27:40.871Z,26.62
2019-06-27T20:30:07.679Z,25.94
2019-06-27T20:32:33.864Z,27.08
2019-06-27T20:35:00.062Z,26.58
2019-06-27T20:37:27.145Z,27.11
2019-06-27T20:39:53.558Z,26.70
2019-06-27T20:42:19.826Z,26.92
2019-06-27T20:44:46.009Z,26.78
2019-06-27T20:47:12.198Z,26.88
2019-06-27T20:49:38.349Z,28.41
2019-06-27T20:52:04.557Z,29.08
2019-06-27T20:54:30.737Z,29.52
2019-06-27T20:56:56.884Z,29.97
2019-06-27T20:59:23.079Z,29.59
2019-06-27T21:01:49.285Z,30.26
2019-06-27T21:04:15.436Z,30.29
2019-06-27T21:06:41.625Z,29.97
2019-06-27T21:09:07.810Z,30.17
2019-06-27T21:11:33.964Z,30.37
2019-06-27T21:14:00.165Z,30.44
2019-06-27T21:16:26.347Z,30.71
2019-06-27T21:18:52.551Z,30.25
2019-06-27T21:21:19.192Z,30.50
2019-06-27T21:23:45.346Z,30.89
2019-06-27T21:26:11.519Z,31.18
2019-06-27T21:28:37.717Z,30.41
2019-06-27T21:31:03.935Z,30.16
2019-06-27T21:33:30.084Z,29.88
2019-06-27T21:35:56.269Z,30.06
2019-06-27T21:38:22.526Z,30.87
2019-06-27T21:40:48.708Z,30.64
2019-06-27T21:43:15.849Z,30.83
2019-06-27T21:45:41.996Z,30.78
2019-06-27T21:48:08.170Z,29.22
2019-06-27T21:50:34.365Z,29.45
2019-06-27T21:53:00.522Z,29.23
2019-06-27T21:55:26.709Z,28.44
2019-06-27T21:57:52.891Z,28.30
2019-06-27T22:00:19.787Z,28.99
2019-06-27T22:02:46.072Z,29.05
2019-06-27T22:05:12.467Z,28.49
2019-06-27T22:07:38.641Z,28.20
2019-06-27T22:10:06.902Z,28.51
2019-06-27T22:12:34.448Z,28.62
2019-06-27T22:15:00.974Z,28.37
2019-06-27T22:17:27.139Z,28.24
2019-06-27T22:19:53.329Z,29.36
2019-06-27T22:22:19.480Z,29.18
2019-06-27T22:24:48.044Z,28.59
2019-06-27T22:27:14.244Z,28.29
2019-06-27T22:29:40.426Z,29.56
2019-06-27T22:32:06.595Z,31.06
2019-06-27T22:34:33.191Z,30.50
2019-06-27T22:37:02.169Z,30.56
2019-06-27T22:39:46.876Z,30.67
2019-06-27T22:42:31.374Z,31.07
2019-06-27T22:45:15.793Z,30.69
2019-06-27T22:48:00.679Z,30.91
2019-06-27T22:50:31.768Z,30.99
2019-06-27T22:53:11.634Z,31.41
2019-06-27T22:55:37.942Z,31.81
2019-06-27T22:58:04.115Z,34.77
2019-06-27T23:00:30.374Z,33.71
2019-06-27T23:02:56.569Z,34.03
2019-06-27T23:05:22.748Z,33.96
2019-06-27T23:07:48.928Z,34.39
2019-06-27T23:10:15.112Z,33.71
2019-06-27T23:12:41.275Z,33.50
2019-06-27T23:15:07.851Z,34.30
2019-06-27T23:17:34.052Z,33.95
2019-06-27T23:20:00.216Z,34.58
2019-06-27T23:22:26.419Z,33.68
2019-06-27T23:24:52.683Z,33.19
2019-06-27T23:27:18.833Z,33.26
2019-06-27T23:29:45.021Z,33.15
2019-06-27T23:32:11.311Z,33.39
2019-06-27T23:34:37.466Z,33.96
2019-06-27T23:37:03.626Z,33.74
2019-06-27T23:39:29.840Z,32.47
2019-06-27T23:41:56.022Z,32.32
2019-06-27T23:44:22.182Z,32.01
2019-06-27T23:46:48.505Z,32.43
2019-06-27T23:49:14.667Z,32.88
2019-06-27T23:51:40.838Z,32.09
2019-06-27T23:54:07.435Z,33.25
2019-06-27T23:56:33.603Z,33.64
2019-06-27T23:58:59.760Z,34.25
